EDT,Max TemperatureF,Mean TemperatureF,Min TemperatureF,Max Dew PointF,MeanDew PointF,Min DewpointF,Max Humidity, Mean Humidity, Min Humidity, Max Sea Level PressureIn, Mean Sea Level PressureIn, Min Sea Level PressureIn, Max VisibilityMiles, Mean VisibilityMiles, Min VisibilityMiles, Max Wind SpeedMPH, Mean Wind SpeedMPH, Max Gust SpeedMPH,PrecipitationIn, CloudCover, Events, WindDirDegrees
2013-7-1,73,67,60,62,60,56,100,79,57,30.10,30.03,29.94,10,10,5,17,7,23,0.22,6,Rain,351
2013-7-2,71,64,57,67,61,55,93,83,73,30.12,30.10,30.08,10,4,2,9,3,12,0.26,7,Rain,325
2013-7-3,80,73,66,73,69,64,100,85,69,30.15,30.12,30.08,10,4,1,9,2,18,0.47,5,Rain,87
2013-7-4,83,74,65,74,69,64,100,87,74,30.16,30.12,30.05,10,5,0,23,4,31,1.03,2,Fog-Rain-Thunderstorm,153
2013-7-5,90,78,66,74,70,65,94,80,65,30.12,30.06,30.01,10,10,8,15,3,18,0.02,4,Rain-Thunderstorm,170
2013-7-6,87,78,69,69,65,58,97,68,39,30.05,30.02,29.97,10,10,10,12,3,18,0.00,3,,234
2013-7-7,79,74,69,70,67,57,100,82,64,30.00,29.96,29.93,10,6,2,12,3,14,0.13,4,Rain,121
2013-7-8,79,73,66,68,66,64,97,80,62,30.04,29.98,29.92,10,8,2,13,6,17,T,6,Rain,5
2013-7-9,84,74,63,71,66,62,93,76,58,30.07,30.01,29.94,10,10,9,10,2,13,0.00,1,,134
2013-7-10,82,76,69,72,70,68,100,87,74,29.93,29.77,29.68,10,9,7,23,11,30,T,2,Thunderstorm,158
2013-7-11,80,71,61,72,62,55,97,71,45,30.03,29.85,29.71,10,9,3,18,6,23,0.30,3,Rain-Thunderstorm,321
2013-7-12,76,67,58,58,55,53,90,68,46,30.20,30.14,30.04,10,10,10,12,6,15,T,0,,10
2013-7-13,83,69,55,67,61,54,93,72,51,30.28,30.25,30.22,10,10,10,17,4,22,T,2,,142
2013-7-14,85,77,69,70,68,66,93,74,55,30.30,30.25,30.20,10,10,9,10,3,13,T,4,,140
2013-7-15,92,79,66,71,67,60,100,68,36,30.21,30.18,30.14,10,9,2,15,5,22,0.00,0,,290
2013-7-16,86,76,65,72,68,64,93,76,59,30.22,30.18,30.15,10,10,7,13,3,17,0.00,0,,61
2013-7-17,96,83,69,72,69,68,97,70,42,30.16,30.06,29.93,10,10,7,8,3,,T,2,,208
2013-7-18,86,77,68,75,70,67,97,81,65,30.03,29.97,29.90,10,10,8,13,4,15,0.01,1,Rain,134
2013-7-19,95,82,69,72,69,64,100,70,39,29.89,29.72,29.60,10,8,2,30,6,47,0.10,1,Rain-Thunderstorm,220
2013-7-20,84,75,66,72,64,52,84,59,34,29.83,29.67,29.63,10,8,0,17,6,25,0.53,3,Fog-Rain,263
2013-7-21,71,64,56,58,51,48,80,66,52,30.04,29.98,29.85,10,10,10,16,7,20,0.00,1,,11
2013-7-22,77,64,51,64,56,50,100,75,49,30.03,29.95,29.82,10,10,10,9,2,13,0.00,0,,40
2013-7-23,76,71,66,68,66,63,93,84,74,29.80,29.65,29.53,10,8,4,13,2,15,0.20,5,Rain,169
2013-7-24,73,61,48,66,55,46,93,75,56,30.06,29.76,29.53,10,10,4,16,6,23,0.18,6,Rain-Thunderstorm,307
2013-7-25,69,58,47,51,47,42,93,69,45,30.17,30.12,30.07,10,10,10,14,5,22,0.00,0,,11
2013-7-26,75,62,48,59,53,47,93,71,49,30.12,30.07,30.01,10,10,10,14,4,18,0.00,0,,18
2013-7-27,81,65,48,63,57,48,100,74,48,30.04,29.99,29.93,10,10,10,14,5,17,0.01,0,,138
2013-7-28,79,72,64,66,63,61,93,79,64,29.94,29.91,29.88,10,10,10,21,7,26,T,3,Rain,169
2013-7-29,78,70,61,63,59,52,97,76,54,30.08,30.00,29.94,10,10,10,16,4,18,0.02,5,Rain,66
2013-7-30,78,68,57,58,55,52,90,67,43,30.12,30.09,30.05,10,10,10,13,4,16,0.00,3,,292
2013-7-31,79,68,56,63,58,50,93,65,37,30.12,30.06,29.99,10,10,10,15,6,20,0.00,1,,150